createdAt,value
2023-05-31T00:02:59.513Z,98882.00
2023-05-31T00:08:25.127Z,98889.00
2023-05-31T00:14:03.357Z,98890.00
2023-05-31T00:19:25.116Z,98894.00
2023-05-31T00:24:46.666Z,98884.00
2023-05-31T00:30:09.000Z,98892.00
2023-05-31T00:35:31.482Z,98897.00
2023-05-31T00:41:04.990Z,98893.00
2023-05-31T00:46:37.453Z,98892.00
2023-05-31T00:52:25.546Z,98883.00
2023-05-31T00:58:04.333Z,98883.00
2023-05-31T01:03:47.206Z,98885.00
2023-05-31T01:09:26.764Z,98882.00
2023-05-31T01:15:13.180Z,98883.00
2023-05-31T01:20:38.069Z,98878.00
2023-05-31T01:26:31.761Z,98885.00
2023-05-31T01:31:59.282Z,98889.00
2023-05-31T01:37:46.840Z,98884.00
2023-05-31T01:43:25.860Z,98874.00
2023-05-31T01:49:06.197Z,98879.00
2023-05-31T01:54:28.785Z,98874.00
2023-05-31T01:59:51.834Z,98877.00
2023-05-31T02:05:34.169Z,98870.00
2023-05-31T02:11:16.718Z,98880.00
2023-05-31T02:16:52.278Z,98889.00
2023-05-31T02:22:19.552Z,98883.00
2023-05-31T02:28:00.991Z,98879.00
2023-05-31T02:33:48.504Z,98891.00
2023-05-31T02:39:16.190Z,98883.00
2023-05-31T02:44:38.716Z,98887.00
2023-05-31T02:50:01.496Z,98886.00
2023-05-31T02:55:23.758Z,98878.00
2023-05-31T03:01:30.083Z,98879.00
2023-05-31T03:07:16.450Z,98890.00
2023-05-31T03:13:00.979Z,98886.00
2023-05-31T03:18:37.600Z,98891.00
2023-05-31T03:24:06.161Z,98883.00
2023-05-31T03:29:27.679Z,98896.00
2023-05-31T03:34:49.459Z,98895.00
2023-05-31T03:40:11.008Z,98886.00
2023-05-31T03:45:32.579Z,98892.00
2023-05-31T03:51:15.863Z,98886.00
2023-05-31T03:57:07.088Z,98894.00
2023-05-31T04:08:53.608Z,98897.00
2023-05-31T04:14:16.654Z,98894.00
2023-05-31T04:19:39.155Z,98887.00
2023-05-31T04:25:00.630Z,98891.00
2023-05-31T04:30:28.592Z,98902.00
2023-05-31T04:36:10.892Z,98904.00
2023-05-31T04:42:01.687Z,98897.00
2023-05-31T04:48:01.415Z,98898.00
2023-05-31T04:53:47.064Z,98898.00
2023-05-31T04:59:18.976Z,98902.00
2023-05-31T05:05:01.283Z,98903.00
2023-05-31T05:10:27.635Z,98902.00
2023-05-31T05:16:02.666Z,98900.00
2023-05-31T05:21:38.555Z,98905.00
2023-05-31T05:27:20.108Z,98905.00
2023-05-31T05:33:06.248Z,98904.00
2023-05-31T05:38:46.410Z,98904.00
2023-05-31T05:44:12.689Z,98907.00
2023-05-31T05:49:36.570Z,98905.00
2023-05-31T05:54:58.154Z,98912.00
2023-05-31T06:00:20.325Z,98914.00
2023-05-31T06:05:59.904Z,98918.00
2023-05-31T06:11:41.396Z,98918.00
2023-05-31T06:17:26.237Z,98924.00
2023-05-31T06:23:06.341Z,98925.00
2023-05-31T06:28:51.753Z,98918.00
2023-05-31T06:34:34.634Z,98925.00
2023-05-31T06:39:56.765Z,98915.00
2023-05-31T06:45:18.440Z,98928.00
2023-05-31T06:51:03.002Z,98926.00
2023-05-31T06:57:09.428Z,98927.00
2023-05-31T07:02:51.218Z,98931.00
2023-05-31T07:08:35.820Z,98921.00
2023-05-31T07:14:29.656Z,98922.00
2023-05-31T07:19:52.309Z,98925.00
2023-05-31T07:25:13.910Z,98913.00
2023-05-31T07:30:35.335Z,98913.00
2023-05-31T07:36:12.621Z,98916.00
2023-05-31T07:41:57.329Z,98911.00
2023-05-31T07:47:32.175Z,98910.00
2023-05-31T07:53:05.316Z,98907.00
2023-05-31T07:58:44.300Z,98904.00
2023-05-31T08:04:29.920Z,98897.00
2023-05-31T08:09:51.703Z,98896.00
2023-05-31T08:15:13.364Z,98896.00
2023-05-31T08:20:36.010Z,98893.00
2023-05-31T08:26:10.133Z,98888.00
2023-05-31T08:31:55.063Z,98890.00
2023-05-31T08:37:46.477Z,98892.00
2023-05-31T08:43:35.254Z,98882.00
2023-05-31T08:49:16.245Z,98880.00
2023-05-31T08:54:39.657Z,98883.00
2023-05-31T09:00:09.519Z,98871.00
2023-05-31T09:05:44.607Z,98867.00
2023-05-31T09:11:35.379Z,98884.00
2023-05-31T09:17:22.473Z,98868.00
2023-05-31T09:23:05.911Z,98861.00
2023-05-31T09:28:57.921Z,98862.00
2023-05-31T09:34:30.607Z,98866.00
2023-05-31T09:39:59.089Z,98854.00
2023-05-31T09:45:21.642Z,98854.00
2023-05-31T09:50:43.137Z,98856.00
2023-05-31T09:56:33.850Z,98848.00
2023-05-31T10:02:09.442Z,98854.00
2023-05-31T10:08:04.083Z,98847.00
2023-05-31T10:20:00.693Z,98841.00
2023-05-31T10:25:43.495Z,98841.00
2023-05-31T10:31:40.017Z,98835.00
2023-05-31T10:37:07.286Z,98825.00
2023-05-31T10:43:00.437Z,98822.00
2023-05-31T10:48:55.639Z,98807.00
2023-05-31T10:54:31.801Z,98808.00
2023-05-31T10:59:53.588Z,98804.00
2023-05-31T11:05:50.003Z,98802.00
2023-05-31T11:12:01.054Z,98803.00
2023-05-31T11:17:45.000Z,98808.00
2023-05-31T11:23:43.202Z,98804.00
2023-05-31T11:29:20.298Z,98795.00
2023-05-31T11:35:01.527Z,98784.00
2023-05-31T11:40:23.552Z,98783.00
2023-05-31T11:45:49.356Z,98783.00
2023-05-31T11:51:36.103Z,98783.00
2023-05-31T11:57:33.427Z,98777.00
2023-05-31T12:03:22.033Z,98783.00
2023-05-31T12:08:53.879Z,98768.00
2023-05-31T12:14:23.115Z,98771.00
2023-05-31T12:19:48.134Z,98771.00
2023-05-31T12:25:09.641Z,98757.00
2023-05-31T12:30:46.521Z,98760.00
2023-05-31T12:36:31.344Z,98744.00
2023-05-31T12:42:16.624Z,98743.00
2023-05-31T12:48:07.699Z,98751.00
2023-05-31T12:53:44.468Z,98739.00
2023-05-31T12:59:10.594Z,98731.00
2023-05-31T13:05:03.225Z,98740.00
2023-05-31T13:10:34.989Z,98750.00
2023-05-31T13:16:42.823Z,98736.00
2023-05-31T13:22:21.450Z,98727.00
2023-05-31T13:28:00.591Z,98719.00
2023-05-31T13:33:39.023Z,98712.00
2023-05-31T13:39:05.939Z,98694.00
2023-05-31T13:44:28.908Z,98705.00
2023-05-31T13:49:50.148Z,98694.00
2023-05-31T13:55:11.812Z,98688.00
2023-05-31T14:00:36.072Z,98695.00
2023-05-31T14:06:11.857Z,98694.00
2023-05-31T14:12:04.825Z,98681.00
2023-05-31T14:17:51.148Z,98680.00
2023-05-31T14:23:29.348Z,98676.00
2023-05-31T14:29:05.065Z,98673.00
2023-05-31T14:34:33.840Z,98670.00
2023-05-31T14:39:56.755Z,98664.00
2023-05-31T14:45:18.326Z,98667.00
2023-05-31T14:50:39.651Z,98651.00
2023-05-31T14:56:18.750Z,98655.00
2023-05-31T15:02:12.468Z,98652.00
2023-05-31T15:07:47.930Z,98656.00
2023-05-31T15:13:25.506Z,98648.00
2023-05-31T15:18:48.722Z,98649.00
2023-05-31T15:24:16.532Z,98639.00
2023-05-31T15:29:38.828Z,98639.00
2023-05-31T15:35:00.289Z,98640.00
2023-05-31T15:40:29.127Z,98641.00
2023-05-31T15:45:50.923Z,98627.00
2023-05-31T15:51:32.861Z,98622.00
2023-05-31T16:08:44.256Z,98610.00
2023-05-31T16:14:06.786Z,98606.00
2023-05-31T16:19:29.297Z,98607.00
2023-05-31T16:24:51.081Z,98606.00
2023-05-31T16:30:12.727Z,98599.00
2023-05-31T16:35:34.140Z,98592.00
2023-05-31T16:41:07.026Z,98584.00
2023-05-31T16:46:50.713Z,98586.00
2023-05-31T16:52:24.186Z,98574.00
2023-05-31T16:58:07.227Z,98571.00
2023-05-31T17:03:28.749Z,98573.00
2023-05-31T17:08:50.392Z,98569.00
2023-05-31T17:14:18.227Z,98564.00
2023-05-31T17:19:40.246Z,98560.00
2023-05-31T17:25:01.577Z,98562.00
2023-05-31T17:30:28.682Z,98559.00
2023-05-31T17:35:57.778Z,98566.00
2023-05-31T17:41:43.009Z,98552.00
2023-05-31T17:47:23.920Z,98547.00
2023-05-31T17:53:00.654Z,98549.00
2023-05-31T17:58:48.413Z,98548.00
2023-05-31T18:04:27.188Z,98545.00
2023-05-31T18:09:52.410Z,98538.00
2023-05-31T18:15:14.233Z,98535.00
2023-05-31T18:20:35.532Z,98537.00
2023-05-31T18:26:10.412Z,98540.00
2023-05-31T18:32:19.308Z,98541.00
2023-05-31T18:38:06.522Z,98530.00
2023-05-31T18:43:44.516Z,98543.00
2023-05-31T18:49:12.021Z,98527.00
2023-05-31T18:54:34.253Z,98531.00
2023-05-31T18:59:56.240Z,98528.00
2023-05-31T19:05:34.081Z,98529.00
2023-05-31T19:11:12.232Z,98538.00
2023-05-31T19:16:44.249Z,98521.00
2023-05-31T19:22:21.077Z,98525.00
2023-05-31T19:27:59.164Z,98523.00
2023-05-31T19:33:34.499Z,98529.00
2023-05-31T19:39:03.025Z,98537.00
2023-05-31T19:44:26.983Z,98544.00
2023-05-31T19:49:48.571Z,98539.00
2023-05-31T19:55:10.874Z,98526.00
2023-05-31T20:00:32.564Z,98531.00
2023-05-31T20:06:00.475Z,98531.00
2023-05-31T20:11:43.655Z,98526.00
2023-05-31T20:17:27.286Z,98523.00
2023-05-31T20:23:01.729Z,98518.00
2023-05-31T20:28:54.643Z,98510.00
2023-05-31T20:34:22.872Z,98508.00
2023-05-31T20:39:44.686Z,98503.00
2023-05-31T20:45:07.026Z,98507.00
2023-05-31T20:50:34.074Z,98496.00
2023-05-31T20:56:12.458Z,98514.00
2023-05-31T21:07:46.576Z,98507.00
2023-05-31T21:13:22.144Z,98503.00
2023-05-31T21:19:03.844Z,98508.00
2023-05-31T21:24:26.210Z,98500.00
2023-05-31T21:29:47.824Z,98510.00
2023-05-31T21:35:09.295Z,98495.00
2023-05-31T21:40:32.271Z,98499.00
2023-05-31T21:45:53.760Z,98497.00
2023-05-31T21:51:15.336Z,98496.00
2023-05-31T21:56:36.953Z,98505.00
2023-05-31T22:01:58.566Z,98499.00
2023-05-31T22:07:20.540Z,98497.00
2023-05-31T22:12:42.332Z,98507.00
2023-05-31T22:18:03.842Z,98513.00
2023-05-31T22:23:26.480Z,98509.00
2023-05-31T22:28:48.884Z,98519.00
2023-05-31T22:34:10.268Z,98511.00
2023-05-31T22:39:32.007Z,98506.00
2023-05-31T22:44:53.474Z,98512.00
2023-05-31T22:50:15.304Z,98520.00
2023-05-31T22:55:40.112Z,98521.00
2023-05-31T23:01:01.816Z,98520.00
2023-05-31T23:06:26.659Z,98510.00
2023-05-31T23:11:50.586Z,98508.00
2023-05-31T23:17:11.805Z,98509.00
2023-05-31T23:22:33.649Z,98515.00
2023-05-31T23:27:55.108Z,98510.00
2023-05-31T23:33:18.033Z,98500.00
2023-05-31T23:38:41.568Z,98497.00
2023-05-31T23:44:02.789Z,98498.00
2023-05-31T23:49:24.075Z,98493.00
2023-05-31T23:54:45.958Z,98499.00
